sensor_id;sensor_type;location;lat;lon;timestamp;pressure;altitude;pressure_sealevel;temperature;humidity
64886;BME280;51514;52.206;5.114;2023-04-29T00:02:17;101572.16;;;11.34;91.61
64886;BME280;51514;52.206;5.114;2023-04-29T00:04:43;101570.44;;;11.33;92.08
64886;BME280;51514;52.206;5.114;2023-04-29T00:07:08;101567.63;;;11.35;91.84
64886;BME280;51514;52.206;5.114;2023-04-29T00:09:33;101573.56;;;11.39;92.03
64886;BME280;51514;52.206;5.114;2023-04-29T00:11:59;101579.81;;;11.39;91.82
64886;BME280;51514;52.206;5.114;2023-04-29T00:14:24;101569.84;;;11.40;91.65
64886;BME280;51514;52.206;5.114;2023-04-29T00:16:50;101574.97;;;11.43;91.60
64886;BME280;51514;52.206;5.114;2023-04-29T00:19:15;101575.97;;;11.42;91.59
64886;BME280;51514;52.206;5.114;2023-04-29T00:21:42;101578.66;;;11.42;91.46
64886;BME280;51514;52.206;5.114;2023-04-29T00:24:08;101582.94;;;11.44;91.19
64886;BME280;51514;52.206;5.114;2023-04-29T00:26:33;101580.66;;;11.40;91.03
64886;BME280;51514;52.206;5.114;2023-04-29T00:28:59;101592.03;;;11.43;91.11
64886;BME280;51514;52.206;5.114;2023-04-29T00:31:25;101589.75;;;11.39;90.79
64886;BME280;51514;52.206;5.114;2023-04-29T00:33:50;101595.16;;;11.39;90.78
64886;BME280;51514;52.206;5.114;2023-04-29T00:36:15;101598.00;;;11.37;90.83
64886;BME280;51514;52.206;5.114;2023-04-29T00:38:41;101610.34;;;11.40;90.83
64886;BME280;51514;52.206;5.114;2023-04-29T00:41:07;101606.09;;;11.37;90.76
64886;BME280;51514;52.206;5.114;2023-04-29T00:43:33;101613.34;;;11.37;90.75
64886;BME280;51514;52.206;5.114;2023-04-29T00:45:58;101608.78;;;11.37;91.04
64886;BME280;51514;52.206;5.114;2023-04-29T00:48:24;101602.53;;;11.37;90.65
64886;BME280;51514;52.206;5.114;2023-04-29T00:50:50;101601.53;;;11.38;90.37
64886;BME280;51514;52.206;5.114;2023-04-29T00:53:16;101609.66;;;11.38;90.61
64886;BME280;51514;52.206;5.114;2023-04-29T00:55:43;101609.97;;;11.34;90.27
64886;BME280;51514;52.206;5.114;2023-04-29T00:58:08;101611.94;;;11.32;90.34
64886;BME280;51514;52.206;5.114;2023-04-29T01:00:34;101619.34;;;11.30;90.33
64886;BME280;51514;52.206;5.114;2023-04-29T01:03:01;101616.63;;;11.30;90.47
64886;BME280;51514;52.206;5.114;2023-04-29T01:05:27;101621.03;;;11.31;90.45
64886;BME280;51514;52.206;5.114;2023-04-29T01:10:52;101622.31;;;11.27;90.50
64886;BME280;51514;52.206;5.114;2023-04-29T01:13:36;101623.16;;;11.28;90.71
64886;BME280;51514;52.206;5.114;2023-04-29T01:16:10;101628.28;;;11.31;90.61
64886;BME280;51514;52.206;5.114;2023-04-29T01:18:53;101623.88;;;11.30;90.75
64886;BME280;51514;52.206;5.114;2023-04-29T01:21:19;101624.59;;;11.32;90.07
64886;BME280;51514;52.206;5.114;2023-04-29T01:23:45;101626.16;;;11.34;90.52
64886;BME280;51514;52.206;5.114;2023-04-29T01:26:10;101632.25;;;11.37;90.49
64886;BME280;51514;52.206;5.114;2023-04-29T01:29:01;101635.13;;;11.35;90.24
64886;BME280;51514;52.206;5.114;2023-04-29T01:31:37;101634.81;;;11.38;90.71
64886;BME280;51514;52.206;5.114;2023-04-29T01:34:33;101634.94;;;11.37;90.66
64886;BME280;51514;52.206;5.114;2023-04-29T01:42:52;101641.91;;;11.29;89.78
64886;BME280;51514;52.206;5.114;2023-04-29T01:45:20;101645.75;;;11.27;89.97
64886;BME280;51514;52.206;5.114;2023-04-29T01:47:47;101646.91;;;11.24;90.08
64886;BME280;51514;52.206;5.114;2023-04-29T01:50:16;101648.59;;;11.25;90.02
64886;BME280;51514;52.206;5.114;2023-04-29T01:52:42;101642.06;;;11.18;89.96
64886;BME280;51514;52.206;5.114;2023-04-29T01:55:07;101646.03;;;11.14;90.30
64886;BME280;51514;52.206;5.114;2023-04-29T01:57:33;101646.91;;;11.15;90.04
64886;BME280;51514;52.206;5.114;2023-04-29T01:59:58;101645.75;;;11.17;90.11
64886;BME280;51514;52.206;5.114;2023-04-29T02:02:23;101657.41;;;11.18;89.73
64886;BME280;51514;52.206;5.114;2023-04-29T02:04:49;101653.88;;;11.17;89.85
64886;BME280;51514;52.206;5.114;2023-04-29T02:07:15;101652.72;;;11.20;89.58
64886;BME280;51514;52.206;5.114;2023-04-29T02:09:41;101650.88;;;11.20;89.48
64886;BME280;51514;52.206;5.114;2023-04-29T02:12:06;101661.69;;;11.20;89.57
64886;BME280;51514;52.206;5.114;2023-04-29T02:14:32;101662.81;;;11.18;89.29
64886;BME280;51514;52.206;5.114;2023-04-29T02:16:58;101663.41;;;11.21;89.44
64886;BME280;51514;52.206;5.114;2023-04-29T02:19:24;101668.78;;;11.21;89.58
64886;BME280;51514;52.206;5.114;2023-04-29T02:21:49;101665.09;;;11.22;89.83
64886;BME280;51514;52.206;5.114;2023-04-29T02:24:14;101661.81;;;11.19;89.37
64886;BME280;51514;52.206;5.114;2023-04-29T02:26:40;101683.56;;;11.17;89.61
64886;BME280;51514;52.206;5.114;2023-04-29T02:29:05;101672.75;;;11.17;89.71
64886;BME280;51514;52.206;5.114;2023-04-29T02:31:31;101672.47;;;11.20;89.82
64886;BME280;51514;52.206;5.114;2023-04-29T02:33:56;101681.56;;;11.19;89.61
64886;BME280;51514;52.206;5.114;2023-04-29T02:36:22;101689.66;;;11.19;90.08
64886;BME280;51514;52.206;5.114;2023-04-29T02:38:48;101693.22;;;11.20;89.98
64886;BME280;51514;52.206;5.114;2023-04-29T02:41:16;101694.06;;;11.20;90.04
64886;BME280;51514;52.206;5.114;2023-04-29T02:43:42;101701.47;;;11.18;90.34
64886;BME280;51514;52.206;5.114;2023-04-29T02:46:10;101700.03;;;11.14;90.29
64886;BME280;51514;52.206;5.114;2023-04-29T02:48:35;101694.09;;;11.11;90.46
64886;BME280;51514;52.206;5.114;2023-04-29T02:51:01;101699.34;;;11.12;91.05
64886;BME280;51514;52.206;5.114;2023-04-29T02:53:26;101699.63;;;11.09;90.69
64886;BME280;51514;52.206;5.114;2023-04-29T02:55:51;101706.59;;;11.12;90.83
64886;BME280;51514;52.206;5.114;2023-04-29T02:58:17;101703.59;;;11.15;90.85
64886;BME280;51514;52.206;5.114;2023-04-29T03:00:42;101708.84;;;11.16;90.78
64886;BME280;51514;52.206;5.114;2023-04-29T03:03:08;101711.25;;;11.19;90.63
64886;BME280;51514;52.206;5.114;2023-04-29T03:05:34;101718.09;;;11.23;90.86
64886;BME280;51514;52.206;5.114;2023-04-29T03:07:59;101717.78;;;11.26;90.52
64886;BME280;51514;52.206;5.114;2023-04-29T03:10:25;101715.09;;;11.26;90.12
64886;BME280;51514;52.206;5.114;2023-04-29T03:12:50;101717.78;;;11.26;90.17
64886;BME280;51514;52.206;5.114;2023-04-29T03:15:16;101719.94;;;11.23;89.82
64886;BME280;51514;52.206;5.114;2023-04-29T03:17:41;101722.78;;;11.21;89.39
64886;BME280;51514;52.206;5.114;2023-04-29T03:20:07;101730.59;;;11.24;89.58
64886;BME280;51514;52.206;5.114;2023-04-29T03:22:34;101730.59;;;11.24;89.64
64886;BME280;51514;52.206;5.114;2023-04-29T03:25:00;101737.84;;;11.24;89.73
64886;BME280;51514;52.206;5.114;2023-04-29T03:27:25;101733.00;;;11.27;89.92
64886;BME280;51514;52.206;5.114;2023-04-29T03:29:51;101734.72;;;11.28;89.77
64886;BME280;51514;52.206;5.114;2023-04-29T03:32:17;101749.78;;;11.31;89.38
64886;BME280;51514;52.206;5.114;2023-04-29T03:34:42;101738.13;;;11.30;89.46
64886;BME280;51514;52.206;5.114;2023-04-29T03:37:07;101740.09;;;11.28;89.38
64886;BME280;51514;52.206;5.114;2023-04-29T03:39:33;101737.53;;;11.27;89.44
64886;BME280;51514;52.206;5.114;2023-04-29T03:41:58;101750.91;;;11.28;90.08
64886;BME280;51514;52.206;5.114;2023-04-29T03:44:24;101756.03;;;11.31;89.80
64886;BME280;51514;52.206;5.114;2023-04-29T03:46:50;101749.66;;;11.32;89.70
64886;BME280;51514;52.206;5.114;2023-04-29T03:49:16;101751.75;;;11.29;89.73
64886;BME280;51514;52.206;5.114;2023-04-29T03:51:42;101759.00;;;11.28;89.46
64886;BME280;51514;52.206;5.114;2023-04-29T03:54:09;101756.31;;;11.28;89.45
64886;BME280;51514;52.206;5.114;2023-04-29T03:56:35;101761.72;;;11.28;89.91
64886;BME280;51514;52.206;5.114;2023-04-29T03:59:00;101753.59;;;11.28;89.62
64886;BME280;51514;52.206;5.114;2023-04-29T04:01:26;101760.00;;;11.27;89.83
64886;BME280;51514;52.206;5.114;2023-04-29T04:03:51;101767.38;;;11.25;90.00
64886;BME280;51514;52.206;5.114;2023-04-29T04:06:16;101763.69;;;11.26;90.15
64886;BME280;51514;52.206;5.114;2023-04-29T04:08:41;101766.53;;;11.25;90.35
64886;BME280;51514;52.206;5.114;2023-04-29T04:11:07;101766.81;;;11.22;90.63
64886;BME280;51514;52.206;5.114;2023-04-29T04:13:34;101774.94;;;11.22;91.02
64886;BME280;51514;52.206;5.114;2023-04-29T04:15:59;101773.34;;;11.19;91.24
64886;BME280;51514;52.206;5.114;2023-04-29T04:18:24;101775.91;;;11.21;91.33
64886;BME280;51514;52.206;5.114;2023-04-29T04:20:50;101767.22;;;11.17;91.55
64886;BME280;51514;52.206;5.114;2023-04-29T04:23:15;101781.72;;;11.16;91.73
64886;BME280;51514;52.206;5.114;2023-04-29T04:25:47;101778.16;;;11.16;91.90
64886;BME280;51514;52.206;5.114;2023-04-29T04:28:13;101779.31;;;11.13;92.17
64886;BME280;51514;52.206;5.114;2023-04-29T04:30:39;101782.72;;;11.15;92.39
64886;BME280;51514;52.206;5.114;2023-04-29T04:33:04;101786.41;;;11.14;92.26
64886;BME280;51514;52.206;5.114;2023-04-29T04:35:30;101789.25;;;11.13;92.33
64886;BME280;51514;52.206;5.114;2023-04-29T04:37:56;101798.34;;;11.12;92.53
64886;BME280;51514;52.206;5.114;2023-04-29T04:40:21;101801.78;;;11.14;92.71
64886;BME280;51514;52.206;5.114;2023-04-29T04:42:47;101801.78;;;11.14;92.64
64886;BME280;51514;52.206;5.114;2023-04-29T04:45:12;101808.28;;;11.11;92.88
64886;BME280;51514;52.206;5.114;2023-04-29T04:47:39;101819.09;;;11.11;93.26
64886;BME280;51514;52.206;5.114;2023-04-29T04:50:06;101825.34;;;11.12;93.05
64886;BME280;51514;52.206;5.114;2023-04-29T04:52:31;101823.19;;;11.15;93.05
64886;BME280;51514;52.206;5.114;2023-04-29T04:54:56;101824.91;;;11.16;92.61
64886;BME280;51514;52.206;5.114;2023-04-29T04:57:22;101833.88;;;11.17;92.61
64886;BME280;51514;52.206;5.114;2023-04-29T04:59:47;101834.00;;;11.15;92.77
64886;BME280;51514;52.206;5.114;2023-04-29T05:02:12;101835.84;;;11.15;92.79
64886;BME280;51514;52.206;5.114;2023-04-29T05:04:38;101845.09;;;11.12;92.97
64886;BME280;51514;52.206;5.114;2023-04-29T05:07:03;101844.09;;;11.13;92.66
64886;BME280;51514;52.206;5.114;2023-04-29T05:09:29;101849.50;;;11.13;92.77
64886;BME280;51514;52.206;5.114;2023-04-29T05:11:54;101837.69;;;11.14;92.96
64886;BME280;51514;52.206;5.114;2023-04-29T05:14:20;101841.25;;;11.15;92.63
64886;BME280;51514;52.206;5.114;2023-04-29T05:16:45;101835.00;;;11.14;92.68
64886;BME280;51514;52.206;5.114;2023-04-29T05:19:11;101851.19;;;11.14;92.91
64886;BME280;51514;52.206;5.114;2023-04-29T05:21:36;101841.09;;;11.16;92.91
64886;BME280;51514;52.206;5.114;2023-04-29T05:24:01;101850.19;;;11.15;92.74
64886;BME280;51514;52.206;5.114;2023-04-29T05:26:27;101863.28;;;11.20;93.09
64886;BME280;51514;52.206;5.114;2023-04-29T05:28:52;101858.47;;;11.23;92.72
64886;BME280;51514;52.206;5.114;2023-04-29T05:31:19;101862.03;;;11.24;92.32
64886;BME280;51514;52.206;5.114;2023-04-29T05:33:45;101868.56;;;11.21;92.29
64886;BME280;51514;52.206;5.114;2023-04-29T05:36:10;101871.53;;;11.18;92.10
64886;BME280;51514;52.206;5.114;2023-04-29T05:38:35;101868.81;;;11.18;91.72
64886;BME280;51514;52.206;5.114;2023-04-29T05:41:01;101875.94;;;11.19;91.90
64886;BME280;51514;52.206;5.114;2023-04-29T05:43:27;101873.63;;;11.15;91.41
64886;BME280;51514;52.206;5.114;2023-04-29T05:45:53;101873.50;;;11.16;91.71
64886;BME280;51514;52.206;5.114;2023-04-29T05:48:18;101874.34;;;11.17;91.64
64886;BME280;51514;52.206;5.114;2023-04-29T05:50:44;101883.75;;;11.22;91.82
64886;BME280;51514;52.206;5.114;2023-04-29T05:53:09;101886.16;;;11.25;91.36
64886;BME280;51514;52.206;5.114;2023-04-29T05:55:35;101889.88;;;11.24;91.29
64886;BME280;51514;52.206;5.114;2023-04-29T05:58:00;101893.41;;;11.25;90.95
64886;BME280;51514;52.206;5.114;2023-04-29T06:00:26;101895.84;;;11.28;90.90
64886;BME280;51514;52.206;5.114;2023-04-29T06:02:51;101898.41;;;11.29;90.98
64886;BME280;51514;52.206;5.114;2023-04-29T06:05:16;101905.25;;;11.33;91.11
64886;BME280;51514;52.206;5.114;2023-04-29T06:07:42;101902.69;;;11.32;90.83
64886;BME280;51514;52.206;5.114;2023-04-29T06:10:08;101912.38;;;11.34;91.14
64886;BME280;51514;52.206;5.114;2023-04-29T06:12:34;101913.78;;;11.39;91.03
64886;BME280;51514;52.206;5.114;2023-04-29T06:15:00;101916.47;;;11.39;90.28
64886;BME280;51514;52.206;5.114;2023-04-29T06:17:26;101921.75;;;11.40;90.27
64886;BME280;51514;52.206;5.114;2023-04-29T06:19:54;101927.16;;;11.40;90.63
64886;BME280;51514;52.206;5.114;2023-04-29T06:22:19;101925.88;;;11.34;90.18
64886;BME280;51514;52.206;5.114;2023-04-29T06:24:44;101935.22;;;11.30;90.26
64886;BME280;51514;52.206;5.114;2023-04-29T06:27:11;101935.81;;;11.34;90.36
64886;BME280;51514;52.206;5.114;2023-04-29T06:29:36;101936.50;;;11.36;90.16
64886;BME280;51514;52.206;5.114;2023-04-29T06:32:02;101936.25;;;11.39;90.58
64886;BME280;51514;52.206;5.114;2023-04-29T06:34:27;101947.03;;;11.39;90.29
64886;BME280;51514;52.206;5.114;2023-04-29T06:36:52;101954.16;;;11.40;90.39
64886;BME280;51514;52.206;5.114;2023-04-29T06:39:18;101955.72;;;11.43;90.25
64886;BME280;51514;52.206;5.114;2023-04-29T06:41:43;101966.28;;;11.46;89.56
64886;BME280;51514;52.206;5.114;2023-04-29T06:44:08;101966.69;;;11.51;89.72
64886;BME280;51514;52.206;5.114;2023-04-29T06:46:34;101968.16;;;11.55;89.16
64886;BME280;51514;52.206;5.114;2023-04-29T06:49:00;101971.56;;;11.57;89.77
64886;BME280;51514;52.206;5.114;2023-04-29T06:51:25;101970.00;;;11.64;89.43
64886;BME280;51514;52.206;5.114;2023-04-29T06:53:52;101977.03;;;11.76;88.17
64886;BME280;51514;52.206;5.114;2023-04-29T06:56:17;101978.78;;;11.87;87.67
64886;BME280;51514;52.206;5.114;2023-04-29T06:58:43;101978.19;;;11.93;87.64
64886;BME280;51514;52.206;5.114;2023-04-29T07:01:08;101976.81;;;12.08;87.69
64886;BME280;51514;52.206;5.114;2023-04-29T07:03:34;101980.50;;;12.17;87.19
64886;BME280;51514;52.206;5.114;2023-04-29T07:05:59;101976.81;;;12.18;85.81
64886;BME280;51514;52.206;5.114;2023-04-29T07:08:25;101978.25;;;12.22;85.82
64886;BME280;51514;52.206;5.114;2023-04-29T07:10:54;101983.34;;;12.25;85.11
64886;BME280;51514;52.206;5.114;2023-04-29T07:13:20;101989.75;;;12.33;84.72
64886;BME280;51514;52.206;5.114;2023-04-29T07:15:45;101995.59;;;12.48;84.74
64886;BME280;51514;52.206;5.114;2023-04-29T07:18:11;102005.28;;;12.70;85.19
64886;BME280;51514;52.206;5.114;2023-04-29T07:20:36;102011.81;;;12.87;84.17
64886;BME280;51514;52.206;5.114;2023-04-29T07:23:01;102008.94;;;12.98;83.05
64886;BME280;51514;52.206;5.114;2023-04-29T07:25:27;102012.03;;;13.12;83.64
64886;BME280;51514;52.206;5.114;2023-04-29T07:27:54;102019.75;;;13.17;80.83
64886;BME280;51514;52.206;5.114;2023-04-29T07:30:20;102024.00;;;13.20;80.13
64886;BME280;51514;52.206;5.114;2023-04-29T07:32:45;102015.72;;;13.21;80.14
64886;BME280;51514;52.206;5.114;2023-04-29T07:35:11;102019.25;;;13.31;80.32
64886;BME280;51514;52.206;5.114;2023-04-29T07:37:36;102019.63;;;13.46;79.35
64886;BME280;51514;52.206;5.114;2023-04-29T07:40:01;102016.94;;;13.46;78.06
64886;BME280;51514;52.206;5.114;2023-04-29T07:42:27;102024.81;;;13.39;77.98
64886;BME280;51514;52.206;5.114;2023-04-29T07:44:52;102025.06;;;13.46;77.67
64886;BME280;51514;52.206;5.114;2023-04-29T07:47:17;102031.44;;;13.55;77.31
64886;BME280;51514;52.206;5.114;2023-04-29T07:49:43;102033.56;;;13.61;78.00
64886;BME280;51514;52.206;5.114;2023-04-29T07:52:08;102040.19;;;13.76;77.45
64886;BME280;51514;52.206;5.114;2023-04-29T07:54:35;102040.84;;;13.87;76.09
64886;BME280;51514;52.206;5.114;2023-04-29T07:57:00;102039.69;;;13.90;75.53
64886;BME280;51514;52.206;5.114;2023-04-29T07:59:28;102046.91;;;13.99;75.35
64886;BME280;51514;52.206;5.114;2023-04-29T08:01:53;102044.47;;;14.06;75.84
64886;BME280;51514;52.206;5.114;2023-04-29T08:04:18;102050.91;;;14.22;74.80
64886;BME280;51514;52.206;5.114;2023-04-29T08:06:44;102054.09;;;14.36;73.81
64886;BME280;51514;52.206;5.114;2023-04-29T08:09:10;102059.38;;;14.37;73.58
64886;BME280;51514;52.206;5.114;2023-04-29T08:11:35;102049.78;;;14.43;72.73
64886;BME280;51514;52.206;5.114;2023-04-29T08:14:00;102058.00;;;14.51;72.58
64886;BME280;51514;52.206;5.114;2023-04-29T08:16:26;102056.47;;;14.48;72.11
64886;BME280;51514;52.206;5.114;2023-04-29T08:18:52;102066.63;;;14.64;72.65
64886;BME280;51514;52.206;5.114;2023-04-29T08:21:18;102072.38;;;14.79;72.81
64886;BME280;51514;52.206;5.114;2023-04-29T08:23:44;102065.84;;;14.89;71.60
64886;BME280;51514;52.206;5.114;2023-04-29T08:26:10;102060.84;;;15.03;70.81
64886;BME280;51514;52.206;5.114;2023-04-29T08:28:37;102063.03;;;14.99;69.14
64886;BME280;51514;52.206;5.114;2023-04-29T08:31:02;102064.44;;;15.03;69.60
64886;BME280;51514;52.206;5.114;2023-04-29T08:33:30;102062.22;;;15.07;68.75
64886;BME280;51514;52.206;5.114;2023-04-29T08:35:59;102069.16;;;15.01;68.39
64886;BME280;51514;52.206;5.114;2023-04-29T08:38:27;102070.06;;;15.10;68.68
64886;BME280;51514;52.206;5.114;2023-04-29T08:40:53;102075.94;;;15.23;69.54
64886;BME280;51514;52.206;5.114;2023-04-29T08:43:19;102072.97;;;15.34;67.04
64886;BME280;51514;52.206;5.114;2023-04-29T08:45:47;102072.63;;;15.37;66.57
64886;BME280;51514;52.206;5.114;2023-04-29T08:48:14;102074.94;;;15.24;65.96
64886;BME280;51514;52.206;5.114;2023-04-29T08:50:40;102077.09;;;15.20;66.40
64886;BME280;51514;52.206;5.114;2023-04-29T08:53:07;102079.53;;;15.23;66.50
64886;BME280;51514;52.206;5.114;2023-04-29T08:55:44;102082.81;;;15.35;66.05
64886;BME280;51514;52.206;5.114;2023-04-29T08:58:10;102084.72;;;15.43;66.51
64886;BME280;51514;52.206;5.114;2023-04-29T09:00:36;102093.03;;;15.41;64.98
64886;BME280;51514;52.206;5.114;2023-04-29T09:03:17;102092.94;;;15.51;63.57
64886;BME280;51514;52.206;5.114;2023-04-29T09:05:48;102099.06;;;15.53;64.57
64886;BME280;51514;52.206;5.114;2023-04-29T09:08:17;102102.19;;;15.58;63.64
64886;BME280;51514;52.206;5.114;2023-04-29T09:10:42;102109.00;;;15.62;64.03
64886;BME280;51514;52.206;5.114;2023-04-29T09:13:08;102110.88;;;15.61;63.67
64886;BME280;51514;52.206;5.114;2023-04-29T09:15:37;102108.94;;;15.80;63.83
64886;BME280;51514;52.206;5.114;2023-04-29T09:18:04;102104.75;;;15.93;62.09
64886;BME280;51514;52.206;5.114;2023-04-29T09:20:30;102101.34;;;15.91;62.10
64886;BME280;51514;52.206;5.114;2023-04-29T09:23:00;102104.75;;;15.93;62.33
64886;BME280;51514;52.206;5.114;2023-04-29T09:25:26;102106.00;;;16.07;62.11
64886;BME280;51514;52.206;5.114;2023-04-29T09:27:53;102104.38;;;16.22;62.79
64886;BME280;51514;52.206;5.114;2023-04-29T09:30:19;102111.03;;;16.36;61.96
64886;BME280;51514;52.206;5.114;2023-04-29T09:32:45;102112.09;;;16.43;60.67
64886;BME280;51514;52.206;5.114;2023-04-29T09:35:26;102107.81;;;16.40;59.97
64886;BME280;51514;52.206;5.114;2023-04-29T09:37:52;102108.81;;;16.31;58.87
64886;BME280;51514;52.206;5.114;2023-04-29T09:40:32;102116.16;;;16.39;60.68
64886;BME280;51514;52.206;5.114;2023-04-29T09:42:58;102110.56;;;16.49;58.19
64886;BME280;51514;52.206;5.114;2023-04-29T09:45:36;102104.09;;;16.50;55.14
64886;BME280;51514;52.206;5.114;2023-04-29T09:48:06;102115.53;;;16.61;56.21
64886;BME280;51514;52.206;5.114;2023-04-29T09:50:33;102127.16;;;16.71;56.70
64886;BME280;51514;52.206;5.114;2023-04-29T09:52:59;102128.34;;;16.69;56.52
64886;BME280;51514;52.206;5.114;2023-04-29T09:55:25;102123.94;;;16.84;56.54
64886;BME280;51514;52.206;5.114;2023-04-29T09:57:56;102122.22;;;16.75;55.04
64886;BME280;51514;52.206;5.114;2023-04-29T10:00:23;102119.16;;;16.70;56.45
64886;BME280;51514;52.206;5.114;2023-04-29T10:02:50;102128.69;;;16.74;54.90
64886;BME280;51514;52.206;5.114;2023-04-29T10:05:17;102120.00;;;16.78;56.28
64886;BME280;51514;52.206;5.114;2023-04-29T10:07:45;102116.13;;;16.97;56.35
64886;BME280;51514;52.206;5.114;2023-04-29T10:10:11;102123.97;;;17.08;55.32
64886;BME280;51514;52.206;5.114;2023-04-29T10:12:39;102129.06;;;17.28;55.91
64886;BME280;51514;52.206;5.114;2023-04-29T10:15:42;102124.28;;;17.22;54.84
64886;BME280;51514;52.206;5.114;2023-04-29T10:18:19;102130.41;;;17.24;54.54
64886;BME280;51514;52.206;5.114;2023-04-29T10:20:46;102118.84;;;17.30;54.02
64886;BME280;51514;52.206;5.114;2023-04-29T10:23:12;102127.03;;;17.30;54.56
64886;BME280;51514;52.206;5.114;2023-04-29T10:25:43;102119.69;;;17.30;52.98
64886;BME280;51514;52.206;5.114;2023-04-29T10:28:12;102129.22;;;17.26;52.81
64886;BME280;51514;52.206;5.114;2023-04-29T10:30:43;102124.31;;;17.30;53.04
64886;BME280;51514;52.206;5.114;2023-04-29T10:33:10;102125.66;;;17.26;53.21
64886;BME280;51514;52.206;5.114;2023-04-29T10:35:36;102119.69;;;17.38;52.85
64886;BME280;51514;52.206;5.114;2023-04-29T10:38:05;102123.44;;;17.37;52.86
64886;BME280;51514;52.206;5.114;2023-04-29T10:40:41;102123.06;;;17.57;53.36
64886;BME280;51514;52.206;5.114;2023-04-29T10:43:08;102121.22;;;17.49;51.53
64886;BME280;51514;52.206;5.114;2023-04-29T10:45:33;102121.88;;;17.59;51.61
64886;BME280;51514;52.206;5.114;2023-04-29T10:53:12;102123.56;;;17.60;51.61
64886;BME280;51514;52.206;5.114;2023-04-29T10:55:39;102122.03;;;17.58;51.14
64886;BME280;51514;52.206;5.114;2023-04-29T10:58:05;102117.44;;;17.66;52.04
64886;BME280;51514;52.206;5.114;2023-04-29T11:00:32;102121.88;;;17.51;51.51
64886;BME280;51514;52.206;5.114;2023-04-29T11:03:04;102122.19;;;17.56;51.21
64886;BME280;51514;52.206;5.114;2023-04-29T11:05:31;102132.97;;;17.33;50.73
64886;BME280;51514;52.206;5.114;2023-04-29T11:08:10;102127.19;;;17.36;51.33
64886;BME280;51514;52.206;5.114;2023-04-29T11:10:40;102130.56;;;17.46;52.00
64886;BME280;51514;52.206;5.114;2023-04-29T11:13:29;102129.38;;;17.57;51.23
64886;BME280;51514;52.206;5.114;2023-04-29T11:16:09;102131.94;;;17.50;50.32
64886;BME280;51514;52.206;5.114;2023-04-29T11:21:21;102136.53;;;17.66;49.75
64886;BME280;51514;52.206;5.114;2023-04-29T11:23:46;102128.81;;;17.86;50.45
64886;BME280;51514;52.206;5.114;2023-04-29T11:26:18;102129.69;;;17.78;49.98
64886;BME280;51514;52.206;5.114;2023-04-29T11:28:43;102143.66;;;17.75;49.63
64886;BME280;51514;52.206;5.114;2023-04-29T11:31:09;102137.88;;;17.78;48.74
64886;BME280;51514;52.206;5.114;2023-04-29T11:33:35;102135.78;;;17.88;49.40
64886;BME280;51514;52.206;5.114;2023-04-29T11:36:00;102140.56;;;17.86;48.61
64886;BME280;51514;52.206;5.114;2023-04-29T11:38:29;102139.94;;;17.60;48.51
64886;BME280;51514;52.206;5.114;2023-04-29T11:40:55;102143.88;;;17.49;48.37
64886;BME280;51514;52.206;5.114;2023-04-29T11:43:22;102147.94;;;17.53;48.43
64886;BME280;51514;52.206;5.114;2023-04-29T11:45:48;102141.97;;;17.58;47.86
64886;BME280;51514;52.206;5.114;2023-04-29T11:48:21;102137.19;;;17.76;49.91
64886;BME280;51514;52.206;5.114;2023-04-29T11:50:50;102138.00;;;17.85;46.37
64886;BME280;51514;52.206;5.114;2023-04-29T11:53:18;102144.34;;;17.77;46.40
64886;BME280;51514;52.206;5.114;2023-04-29T11:55:45;102147.63;;;17.65;47.61
64886;BME280;51514;52.206;5.114;2023-04-29T11:58:10;102147.97;;;17.70;47.07
64886;BME280;51514;52.206;5.114;2023-04-29T12:00:36;102149.31;;;17.82;46.50
64886;BME280;51514;52.206;5.114;2023-04-29T12:03:16;102143.47;;;17.85;46.73
64886;BME280;51514;52.206;5.114;2023-04-29T12:05:54;102143.31;;;17.86;48.14
64886;BME280;51514;52.206;5.114;2023-04-29T12:08:24;102144.81;;;18.05;46.90
64886;BME280;51514;52.206;5.114;2023-04-29T12:10:51;102130.59;;;18.10;48.69
64886;BME280;51514;52.206;5.114;2023-04-29T12:13:17;102137.78;;;18.11;46.23
64886;BME280;51514;52.206;5.114;2023-04-29T12:15:44;102139.81;;;18.09;45.01
64886;BME280;51514;52.206;5.114;2023-04-29T12:18:11;102144.63;;;17.99;47.05
64886;BME280;51514;52.206;5.114;2023-04-29T12:20:36;102139.25;;;17.82;47.22
64886;BME280;51514;52.206;5.114;2023-04-29T12:23:13;102144.38;;;17.69;47.38
64886;BME280;51514;52.206;5.114;2023-04-29T12:25:39;102133.47;;;17.61;48.31
64886;BME280;51514;52.206;5.114;2023-04-29T12:28:13;102138.94;;;17.37;47.26
64886;BME280;51514;52.206;5.114;2023-04-29T12:30:39;102143.03;;;17.41;49.27
64886;BME280;51514;52.206;5.114;2023-04-29T12:33:07;102142.00;;;17.50;47.95
64886;BME280;51514;52.206;5.114;2023-04-29T12:35:33;102142.00;;;17.66;47.69
64886;BME280;51514;52.206;5.114;2023-04-29T12:37:59;102145.75;;;17.65;46.72
64886;BME280;51514;52.206;5.114;2023-04-29T12:40:24;102142.50;;;17.45;45.83
64886;BME280;51514;52.206;5.114;2023-04-29T12:42:52;102152.75;;;17.51;46.23
64886;BME280;51514;52.206;5.114;2023-04-29T12:45:25;102151.19;;;17.57;47.26
64886;BME280;51514;52.206;5.114;2023-04-29T12:47:51;102155.28;;;17.69;45.97
64886;BME280;51514;52.206;5.114;2023-04-29T12:50:16;102156.28;;;17.76;47.09
64886;BME280;51514;52.206;5.114;2023-04-29T12:52:42;102158.34;;;17.82;46.47
64886;BME280;51514;52.206;5.114;2023-04-29T12:55:07;102155.44;;;17.84;45.31
64886;BME280;51514;52.206;5.114;2023-04-29T12:57:33;102157.66;;;17.80;46.04
64886;BME280;51514;52.206;5.114;2023-04-29T12:59:58;102151.22;;;17.73;46.29
64886;BME280;51514;52.206;5.114;2023-04-29T13:02:23;102160.03;;;17.75;46.72
64886;BME280;51514;52.206;5.114;2023-04-29T13:04:49;102157.00;;;17.70;45.59
64886;BME280;51514;52.206;5.114;2023-04-29T13:07:15;102154.94;;;17.56;45.93